Time;durP1;ratioP1;P1;durP2;ratioP2;P2;SDS_P1;SDS_P2;PMS_P1;PMS_P2;Temp;Humidity;BMP_temperature;BMP_pressure;BME280_temperature;BME280_humidity;BME280_pressure;Samples;Min_cycle;Max_cycle;Signal;HPM_P1;HPM_P2
2022/02/15 00:00:04;;;;;;;;;;;18.70;53.20;;;;;;5034864;28;1341;-68
2022/02/15 00:02:30;;;;;;;;;;;18.70;53.20;;;;;;5033403;28;1442;-67
2022/02/15 00:04:55;;;;;;;;;;;18.60;53.20;;;;;;5033382;28;1268;-69
2022/02/15 00:07:21;;;;;;;;;;;18.60;53.30;;;;;;5034354;28;1949;-67
2022/02/15 00:09:46;;;;;;;;;;;18.60;53.20;;;;;;5034617;28;1753;-69
2022/02/15 00:12:11;;;;;;;;;;;18.60;53.30;;;;;;5034544;28;1369;-68
2022/02/15 00:14:37;;;;;;;;;;;18.60;53.30;;;;;;5034475;28;1380;-68
2022/02/15 00:17:02;;;;;;;;;;;18.60;53.30;;;;;;5034364;28;1056;-68
2022/02/15 00:19:28;;;;;;;;;;;18.60;53.40;;;;;;5032865;28;1187;-68
2022/02/15 00:21:53;;;;;;;;;;;18.60;53.40;;;;;;5032825;28;1288;-68
2022/02/15 00:24:19;;;;;;;;;;;18.60;53.40;;;;;;5034393;28;1358;-69
2022/02/15 00:26:44;;;;;;;;;;;18.60;53.40;;;;;;5034229;28;1902;-68
2022/02/15 00:29:09;;;;;;;;;;;18.60;53.50;;;;;;5033989;28;1120;-67
2022/02/15 00:31:35;;;;;;;;;;;18.60;53.50;;;;;;5034134;28;1048;-67
2022/02/15 00:34:00;;;;;;;;;;;18.60;53.50;;;;;;5033961;28;1205;-68
2022/02/15 00:36:26;;;;;;;;;;;18.60;53.50;;;;;;5033791;28;1066;-67
2022/02/15 00:38:51;;;;;;;;;;;18.50;53.50;;;;;;5033662;28;1311;-68
2022/02/15 00:41:16;;;;;;;;;;;18.50;53.50;;;;;;5033884;28;1243;-67
2022/02/15 00:43:42;;;;;;;;;;;18.50;53.50;;;;;;5033910;28;1299;-68
2022/02/15 00:46:07;;;;;;;;;;;18.50;53.60;;;;;;5033785;28;1898;-68
2022/02/15 00:48:33;;;;;;;;;;;18.50;53.60;;;;;;5033647;28;1052;-68
2022/02/15 00:50:58;;;;;;;;;;;18.50;53.60;;;;;;5033574;28;1260;-68
2022/02/15 00:53:24;;;;;;;;;;;18.50;53.70;;;;;;5033500;28;1380;-68
2022/02/15 00:55:49;;;;;;;;;;;18.50;53.70;;;;;;5033661;28;1310;-68
2022/02/15 00:58:15;;;;;;;;;;;18.50;53.70;;;;;;5032109;28;1157;-68
2022/02/15 01:00:40;;;;;;;;;;;18.50;53.70;;;;;;5031858;28;1076;-68
2022/02/15 01:03:06;;;;;;;;;;;18.50;53.70;;;;;;5033580;28;1351;-69
2022/02/15 01:05:31;;;;;;;;;;;18.50;53.80;;;;;;5033151;28;1959;-68
2022/02/15 01:07:57;;;;;;;;;;;18.50;53.80;;;;;;5033477;28;1313;-68
2022/02/15 01:10:22;;;;;;;;;;;18.50;53.80;;;;;;5033193;28;1068;-66
2022/02/15 01:12:48;;;;;;;;;;;18.50;53.80;;;;;;5033456;28;1426;-69
2022/02/15 01:15:16;;;;;;;;;;;18.50;53.80;;;;;;5033355;28;1425;-68
2022/02/15 01:17:45;;;;;;;;;;;18.50;53.90;;;;;;5032248;28;1148;-68
2022/02/15 01:20:10;;;;;;;;;;;18.50;53.90;;;;;;5032869;28;1158;-67
2022/02/15 01:22:36;;;;;;;;;;;18.50;53.90;;;;;;5032355;28;1337;-67
2022/02/15 01:25:01;;;;;;;;;;;18.50;53.90;;;;;;5033014;28;1898;-68
2022/02/15 01:27:27;;;;;;;;;;;18.50;54.00;;;;;;5031882;28;1099;-68
2022/02/15 01:29:52;;;;;;;;;;;18.50;54.60;;;;;;5031567;28;1238;-67
2022/02/15 01:32:18;;;;;;;;;;;18.40;54.00;;;;;;5033076;28;1064;-67
2022/02/15 01:34:43;;;;;;;;;;;18.50;54.00;;;;;;5032807;28;1225;-68
2022/02/15 01:37:08;;;;;;;;;;;18.40;54.00;;;;;;5032951;28;1138;-67
2022/02/15 01:39:34;;;;;;;;;;;18.40;54.00;;;;;;5032845;28;1135;-67
2022/02/15 01:42:01;;;;;;;;;;;18.40;54.00;;;;;;5032951;28;1350;-68
2022/02/15 01:44:26;;;;;;;;;;;18.40;54.00;;;;;;5033086;28;1281;-67
2022/02/15 01:46:52;;;;;;;;;;;18.40;54.10;;;;;;5032795;28;1914;-68
2022/02/15 01:49:17;;;;;;;;;;;18.40;54.00;;;;;;5032550;28;1239;-67
2022/02/15 01:51:42;;;;;;;;;;;18.40;54.10;;;;;;5032831;28;1104;-67
2022/02/15 01:54:08;;;;;;;;;;;18.40;54.10;;;;;;5031749;28;1342;-68
2022/02/15 01:56:33;;;;;;;;;;;18.40;54.10;;;;;;5032641;28;1072;-67
2022/02/15 01:58:59;;;;;;;;;;;18.40;54.10;;;;;;5032687;28;1020;-68
2022/02/15 02:01:24;;;;;;;;;;;18.40;54.10;;;;;;5031450;28;1040;-68
2022/02/15 02:03:49;;;;;;;;;;;18.40;54.20;;;;;;5032636;28;1351;-67
2022/02/15 02:06:15;;;;;;;;;;;18.40;54.20;;;;;;5031536;28;2028;-67
2022/02/15 02:08:40;;;;;;;;;;;18.40;54.20;;;;;;5032512;28;1251;-68
2022/02/15 02:11:06;;;;;;;;;;;18.40;54.20;;;;;;5034898;28;1119;-68
2022/02/15 02:13:31;;;;;;;;;;;18.40;54.20;;;;;;5036661;28;1362;-69
2022/02/15 02:15:57;;;;;;;;;;;18.40;54.20;;;;;;5036660;28;1302;-68
2022/02/15 02:18:22;;;;;;;;;;;18.40;54.30;;;;;;5036336;28;1052;-68
2022/02/15 02:20:48;;;;;;;;;;;18.40;54.30;;;;;;5036435;28;1365;-68
2022/02/15 02:23:14;;;;;;;;;;;18.40;54.30;;;;;;5036575;28;1299;-65
2022/02/15 02:25:39;;;;;;;;;;;18.40;54.30;;;;;;5034834;28;1984;-68
2022/02/15 02:28:05;;;;;;;;;;;18.40;54.30;;;;;;5035302;28;1076;-68
2022/02/15 02:30:30;;;;;;;;;;;18.40;54.30;;;;;;5034745;28;1060;-69
2022/02/15 02:32:56;;;;;;;;;;;18.40;54.30;;;;;;5035425;28;1092;-68
2022/02/15 02:35:22;;;;;;;;;;;18.40;54.30;;;;;;5034899;28;1129;-68
2022/02/15 02:37:47;;;;;;;;;;;18.40;54.40;;;;;;5023361;28;1361;-67
2022/02/15 02:40:12;;;;;;;;;;;18.40;54.40;;;;;;5036090;28;1043;-68
2022/02/15 02:42:38;;;;;;;;;;;18.30;54.40;;;;;;5036129;28;1111;-68
2022/02/15 02:45:08;;;;;;;;;;;18.40;54.40;;;;;;5034889;28;1316;-68
2022/02/15 02:47:34;;;;;;;;;;;18.30;54.40;;;;;;5034716;28;1076;-68
2022/02/15 02:49:59;;;;;;;;;;;18.30;54.40;;;;;;5035716;28;1147;-68
2022/02/15 02:52:25;;;;;;;;;;;18.40;54.50;;;;;;5036256;28;1376;-68
2022/02/15 02:54:50;;;;;;;;;;;18.30;54.40;;;;;;5034861;28;1477;-68
2022/02/15 02:57:16;;;;;;;;;;;18.30;54.40;;;;;;5034751;28;1291;-67
2022/02/15 02:59:42;;;;;;;;;;;18.30;54.40;;;;;;5034497;28;1295;-67
2022/02/15 03:02:07;;;;;;;;;;;18.30;54.50;;;;;;5034450;28;1163;-69
2022/02/15 03:04:33;;;;;;;;;;;18.30;54.50;;;;;;5034404;28;1263;-68
2022/02/15 03:06:59;;;;;;;;;;;18.30;54.50;;;;;;5034392;28;1906;-68
2022/02/15 03:09:24;;;;;;;;;;;18.30;54.50;;;;;;5035428;28;1360;-68
2022/02/15 03:11:51;;;;;;;;;;;18.30;54.50;;;;;;5035910;28;1416;-67
2022/02/15 03:14:16;;;;;;;;;;;18.30;54.60;;;;;;5035550;28;1353;-67
2022/02/15 03:16:42;;;;;;;;;;;18.30;54.60;;;;;;5035522;28;1338;-67
2022/02/15 03:19:07;;;;;;;;;;;18.30;54.60;;;;;;5035184;28;1047;-68
2022/02/15 03:21:33;;;;;;;;;;;18.30;54.60;;;;;;5035007;28;1409;-67
2022/02/15 03:23:58;;;;;;;;;;;18.30;54.60;;;;;;5034785;28;1380;-68
2022/02/15 03:26:23;;;;;;;;;;;18.30;54.60;;;;;;5034963;28;1963;-67
2022/02/15 03:28:49;;;;;;;;;;;18.30;54.60;;;;;;5033779;28;1330;-67
2022/02/15 03:31:15;;;;;;;;;;;18.30;54.60;;;;;;5035125;28;1056;-68
2022/02/15 03:33:40;;;;;;;;;;;18.30;54.70;;;;;;5035018;28;1255;-67
2022/02/15 03:36:05;;;;;;;;;;;18.30;54.70;;;;;;5035080;28;1206;-69
2022/02/15 03:38:31;;;;;;;;;;;18.30;54.70;;;;;;5033571;28;1450;-68
2022/02/15 03:43:40;;;;;;;;;;;18.30;54.70;;;;;;5034022;28;1328;-68
2022/02/15 03:46:06;;;;;;;;;;;18.30;54.70;;;;;;5033867;28;1906;-68
2022/02/15 03:48:31;;;;;;;;;;;18.30;54.70;;;;;;5033626;28;1388;-68
2022/02/15 03:50:57;;;;;;;;;;;18.30;54.80;;;;;;5034909;28;1068;-69
2022/02/15 03:53:22;;;;;;;;;;;18.30;54.80;;;;;;5034790;28;1346;-67
2022/02/15 03:55:47;;;;;;;;;;;18.30;54.80;;;;;;5017035;28;1093;-67
2022/02/15 03:58:13;;;;;;;;;;;18.30;54.80;;;;;;5033431;28;1189;-69
2022/02/15 04:00:38;;;;;;;;;;;18.20;54.80;;;;;;5033489;28;1398;-69
2022/02/15 04:03:04;;;;;;;;;;;18.20;54.80;;;;;;5034808;28;1178;-68
2022/02/15 04:05:29;;;;;;;;;;;18.20;54.80;;;;;;5034584;28;1902;-69
2022/02/15 04:07:55;;;;;;;;;;;18.20;54.80;;;;;;5033449;28;1151;-69
2022/02/15 04:10:20;;;;;;;;;;;18.20;54.80;;;;;;5034455;28;1072;-68
2022/02/15 04:12:46;;;;;;;;;;;18.20;54.80;;;;;;5034707;28;1261;-69
2022/02/15 04:15:11;;;;;;;;;;;18.30;54.90;;;;;;5034243;28;1384;-68
2022/02/15 04:17:37;;;;;;;;;;;18.20;54.90;;;;;;5034363;28;1554;-67
2022/02/15 04:20:03;;;;;;;;;;;18.20;54.90;;;;;;5034179;28;1072;-68
2022/02/15 04:22:28;;;;;;;;;;;18.20;54.90;;;;;;5032942;28;1108;-67
2022/02/15 04:24:53;;;;;;;;;;;18.20;54.90;;;;;;5032880;28;1324;-69
2022/02/15 04:27:22;;;;;;;;;;;18.20;54.90;;;;;;5032962;28;1902;-67
2022/02/15 04:29:47;;;;;;;;;;;18.20;54.90;;;;;;5032638;28;1265;-68
2022/02/15 04:32:14;;;;;;;;;;;18.20;54.90;;;;;;5032921;28;1147;-67
2022/02/15 04:34:40;;;;;;;;;;;18.20;54.90;;;;;;5033891;28;1302;-67
2022/02/15 04:37:05;;;;;;;;;;;18.20;54.90;;;;;;5032680;28;1131;-68
2022/02/15 04:39:31;;;;;;;;;;;18.20;54.90;;;;;;5032697;28;1091;-67
2022/02/15 04:41:56;;;;;;;;;;;18.20;54.90;;;;;;5033851;28;1381;-67
2022/02/15 04:44:22;;;;;;;;;;;18.20;54.90;;;;;;5033648;28;1432;-68
2022/02/15 04:46:47;;;;;;;;;;;18.20;55.20;;;;;;5032375;28;1911;-68
2022/02/15 04:49:13;;;;;;;;;;;18.20;55.00;;;;;;5032440;28;1124;-68
2022/02/15 04:51:38;;;;;;;;;;;18.20;55.00;;;;;;5033756;28;1285;-67
2022/02/15 04:54:03;;;;;;;;;;;18.20;55.00;;;;;;5032773;28;1418;-67
2022/02/15 04:56:29;;;;;;;;;;;18.20;55.00;;;;;;5033630;28;1111;-68
2022/02/15 04:58:54;;;;;;;;;;;18.20;55.00;;;;;;5033276;28;1065;-67
2022/02/15 05:01:21;;;;;;;;;;;18.20;55.10;;;;;;5033477;28;1428;-68
2022/02/15 05:03:46;;;;;;;;;;;18.20;55.10;;;;;;5033528;28;1231;-67
2022/02/15 05:06:11;;;;;;;;;;;18.20;55.10;;;;;;5033395;28;1966;-68
2022/02/15 05:08:37;;;;;;;;;;;18.20;55.10;;;;;;5033235;28;1122;-67
2022/02/15 05:11:02;;;;;;;;;;;18.20;55.10;;;;;;5033333;28;1126;-67
2022/02/15 05:13:28;;;;;;;;;;;18.20;55.10;;;;;;5033127;28;1263;-67
2022/02/15 05:15:53;;;;;;;;;;;18.20;55.10;;;;;;5033004;28;1683;-68
2022/02/15 05:18:19;;;;;;;;;;;18.20;55.10;;;;;;5032521;28;1306;-67
2022/02/15 05:20:44;;;;;;;;;;;18.20;55.10;;;;;;5032576;28;1267;-68
2022/02/15 05:23:09;;;;;;;;;;;18.20;55.10;;;;;;5032715;28;1123;-67
2022/02/15 05:25:35;;;;;;;;;;;18.20;55.20;;;;;;5032435;28;1979;-68
2022/02/15 05:28:00;;;;;;;;;;;18.20;55.20;;;;;;5031266;28;1167;-68
2022/02/15 05:30:26;;;;;;;;;;;18.20;55.20;;;;;;5032197;28;1059;-67
2022/02/15 05:32:52;;;;;;;;;;;18.20;55.20;;;;;;5032550;28;1075;-67
2022/02/15 05:35:17;;;;;;;;;;;18.20;55.20;;;;;;5032613;28;1336;-68
2022/02/15 05:37:43;;;;;;;;;;;18.20;55.20;;;;;;5032859;28;1080;-69
2022/02/15 05:40:08;;;;;;;;;;;18.20;55.20;;;;;;5031082;28;1048;-67
2022/02/15 05:42:34;;;;;;;;;;;18.20;55.20;;;;;;5032482;28;1017;-67
2022/02/15 05:44:59;;;;;;;;;;;18.20;55.20;;;;;;5032130;28;1362;-67
2022/02/15 05:47:25;;;;;;;;;;;18.10;55.20;;;;;;5032293;28;1961;-68
2022/02/15 05:52:34;;;;;;;;;;;18.20;55.20;;;;;;5031249;28;1009;-68
2022/02/15 05:55:00;;;;;;;;;;;18.20;55.30;;;;;;5032493;28;1340;-68
2022/02/15 05:57:25;;;;;;;;;;;18.20;55.30;;;;;;5032124;28;1071;-69
2022/02/15 05:59:51;;;;;;;;;;;18.20;55.30;;;;;;5030915;28;1293;-68
2022/02/15 06:02:16;;;;;;;;;;;18.20;55.20;;;;;;5031017;28;1072;-68
2022/02/15 06:04:41;;;;;;;;;;;18.20;55.20;;;;;;5032235;28;1273;-70
2022/02/15 06:07:07;;;;;;;;;;;18.30;55.10;;;;;;5032060;28;1895;-68
2022/02/15 06:09:32;;;;;;;;;;;18.40;55.10;;;;;;5031670;28;1143;-69
2022/02/15 06:11:58;;;;;;;;;;;18.50;55.00;;;;;;5032191;28;1028;-69
2022/02/15 06:14:23;;;;;;;;;;;18.50;54.90;;;;;;5031948;28;1373;-67
2022/02/15 06:16:49;;;;;;;;;;;18.70;54.80;;;;;;5031836;28;1047;-68
2022/02/15 06:19:14;;;;;;;;;;;18.80;54.60;;;;;;5031676;28;1171;-70
2022/02/15 06:21:39;;;;;;;;;;;18.90;54.40;;;;;;5031977;28;1128;-68
2022/02/15 06:24:05;;;;;;;;;;;19.00;54.10;;;;;;5057356;22;2043;-72
2022/02/15 06:26:30;;;;;;;;;;;19.20;53.80;;;;;;5036257;28;1909;-71
2022/02/15 06:28:58;;;;;;;;;;;19.30;53.70;;;;;;5050593;28;930;-72
2022/02/15 06:31:23;;;;;;;;;;;19.40;53.40;;;;;;5050963;28;1423;-71
2022/02/15 06:33:48;;;;;;;;;;;19.50;53.20;;;;;;5037364;28;1744;-72
2022/02/15 06:36:14;;;;;;;;;;;19.60;52.90;;;;;;5035736;28;1193;-70
2022/02/15 06:38:39;;;;;;;;;;;19.60;52.60;;;;;;5024599;28;1087;-73
2022/02/15 06:41:05;;;;;;;;;;;19.70;52.50;;;;;;5029336;28;1060;-74
2022/02/15 06:43:30;;;;;;;;;;;19.70;52.20;;;;;;5030500;28;1039;-73
2022/02/15 06:45:56;;;;;;;;;;;19.80;52.10;;;;;;5028969;28;1906;-73
2022/02/15 06:48:21;;;;;;;;;;;19.90;52.00;;;;;;5029075;28;1080;-73
2022/02/15 06:50:46;;;;;;;;;;;19.90;51.90;;;;;;5028189;28;1067;-73
2022/02/15 06:53:12;;;;;;;;;;;19.90;51.80;;;;;;5028795;28;1276;-70
2022/02/15 06:55:37;;;;;;;;;;;19.90;51.80;;;;;;5013200;28;1347;-70
2022/02/15 06:58:03;;;;;;;;;;;20.00;51.80;;;;;;5030795;28;1368;-70
2022/02/15 07:00:28;;;;;;;;;;;19.90;51.70;;;;;;5034016;28;1358;-70
2022/02/15 07:02:53;;;;;;;;;;;19.90;51.60;;;;;;5032852;28;1269;-69
2022/02/15 07:05:19;;;;;;;;;;;20.00;51.60;;;;;;5033661;28;1894;-72
2022/02/15 07:07:45;;;;;;;;;;;19.90;51.50;;;;;;5032334;28;1069;-72
2022/02/15 07:10:12;;;;;;;;;;;19.90;50.60;;;;;;5034189;28;1071;-71
2022/02/15 07:12:37;;;;;;;;;;;19.90;50.60;;;;;;5016153;28;1325;-69
2022/02/15 07:15:03;;;;;;;;;;;19.90;50.60;;;;;;5033536;28;1189;-70
2022/02/15 07:17:34;;;;;;;;;;;19.90;50.60;;;;;;5031687;28;1167;-70
2022/02/15 07:19:59;;;;;;;;;;;19.90;50.70;;;;;;5025482;28;1691;-69
2022/02/15 07:22:24;;;;;;;;;;;19.90;50.80;;;;;;5022930;28;1274;-71
2022/02/15 07:24:50;;;;;;;;;;;19.90;51.00;;;;;;5033092;28;1312;-69
2022/02/15 07:27:15;;;;;;;;;;;19.90;50.90;;;;;;5033047;28;1989;-71
2022/02/15 07:29:41;;;;;;;;;;;19.90;51.00;;;;;;5023551;28;1218;-73
2022/02/15 07:32:06;;;;;;;;;;;19.90;51.00;;;;;;5027886;28;973;-71
2022/02/15 07:34:32;;;;;;;;;;;19.90;51.10;;;;;;5006071;28;1398;-72
2022/02/15 07:36:57;;;;;;;;;;;19.90;51.10;;;;;;5027790;28;1036;-69
2022/02/15 07:39:23;;;;;;;;;;;19.90;51.20;;;;;;5032143;28;1258;-69
2022/02/15 07:41:49;;;;;;;;;;;19.90;51.30;;;;;;5032010;28;1132;-72
2022/02/15 07:44:15;;;;;;;;;;;19.90;51.30;;;;;;5031788;28;1292;-74
2022/02/15 07:46:42;;;;;;;;;;;19.90;51.40;;;;;;5030403;28;1890;-73
2022/02/15 07:49:07;;;;;;;;;;;19.80;51.30;;;;;;5032381;28;1330;-73
2022/02/15 07:51:33;;;;;;;;;;;19.90;51.40;;;;;;5032873;28;1047;-73
2022/02/15 07:53:58;;;;;;;;;;;19.80;51.40;;;;;;5033357;28;1338;-73
2022/02/15 07:56:24;;;;;;;;;;;19.80;51.50;;;;;;5033044;28;1075;-75
2022/02/15 07:58:49;;;;;;;;;;;19.80;51.50;;;;;;5031554;28;1068;-71
2022/02/15 08:01:15;;;;;;;;;;;19.80;51.60;;;;;;5033938;28;1384;-71
2022/02/15 08:03:40;;;;;;;;;;;19.80;51.60;;;;;;5033226;28;1079;-71
2022/02/15 08:06:06;;;;;;;;;;;19.80;51.60;;;;;;5033475;28;1898;-71
2022/02/15 08:08:32;;;;;;;;;;;19.80;51.70;;;;;;5030802;28;1612;-71
2022/02/15 08:10:57;;;;;;;;;;;19.80;51.70;;;;;;5032267;28;1495;-71
2022/02/15 08:13:24;;;;;;;;;;;19.80;51.80;;;;;;5031708;28;1328;-71
2022/02/15 08:15:50;;;;;;;;;;;19.70;52.30;;;;;;5031527;28;1392;-71
2022/02/15 08:18:15;;;;;;;;;;;19.70;51.80;;;;;;5031105;28;1305;-71
2022/02/15 08:20:41;;;;;;;;;;;19.70;51.80;;;;;;5032346;28;1425;-71
2022/02/15 08:23:06;;;;;;;;;;;19.70;51.90;;;;;;5030746;28;1352;-71
2022/02/15 08:25:34;;;;;;;;;;;19.70;51.90;;;;;;5032133;28;1902;-71
2022/02/15 08:27:59;;;;;;;;;;;19.70;52.00;;;;;;5015541;28;1298;-71
2022/02/15 08:30:24;;;;;;;;;;;19.70;52.00;;;;;;5027005;28;1332;-71
2022/02/15 08:32:50;;;;;;;;;;;19.70;52.50;;;;;;5031264;28;1324;-70
2022/02/15 08:35:17;;;;;;;;;;;19.70;52.80;;;;;;5026160;28;1398;-71
2022/02/15 08:37:42;;;;;;;;;;;19.80;52.80;;;;;;5031324;28;1266;-71
2022/02/15 08:40:08;;;;;;;;;;;19.80;52.90;;;;;;5026755;28;1072;-71
2022/02/15 08:42:33;;;;;;;;;;;19.90;52.80;;;;;;5026888;28;1251;-71
2022/02/15 08:44:59;;;;;;;;;;;19.90;53.00;;;;;;5021988;28;1299;-71
2022/02/15 08:47:24;;;;;;;;;;;19.90;53.10;;;;;;5030495;28;1906;-71
2022/02/15 08:49:52;;;;;;;;;;;19.90;53.40;;;;;;5031073;28;1088;-71
2022/02/15 08:52:20;;;;;;;;;;;19.90;53.20;;;;;;5032545;28;1307;-71
2022/02/15 08:54:46;;;;;;;;;;;19.90;53.40;;;;;;5032169;28;1335;-71
2022/02/15 08:57:12;;;;;;;;;;;19.90;53.50;;;;;;5031555;28;1459;-71
2022/02/15 08:59:37;;;;;;;;;;;19.90;53.50;;;;;;5031956;28;1048;-71
2022/02/15 09:02:03;;;;;;;;;;;19.90;53.70;;;;;;5032331;28;1303;-71
2022/02/15 09:04:28;;;;;;;;;;;19.90;53.80;;;;;;5032879;28;1343;-71
2022/02/15 09:06:54;;;;;;;;;;;19.90;53.80;;;;;;5031088;28;1958;-71
2022/02/15 09:09:20;;;;;;;;;;;19.90;53.80;;;;;;5032636;28;1318;-70
2022/02/15 09:11:45;;;;;;;;;;;19.90;53.90;;;;;;5031291;28;1161;-70
2022/02/15 09:14:11;;;;;;;;;;;19.90;53.90;;;;;;5032033;28;1277;-71
2022/02/15 09:16:36;;;;;;;;;;;19.90;54.00;;;;;;5032402;28;1406;-70
2022/02/15 09:19:02;;;;;;;;;;;19.90;54.10;;;;;;5031730;28;1315;-71
2022/02/15 09:21:27;;;;;;;;;;;19.90;54.10;;;;;;5031408;28;1258;-70
2022/02/15 09:23:53;;;;;;;;;;;19.90;54.10;;;;;;5031752;28;1280;-70
2022/02/15 09:26:18;;;;;;;;;;;19.90;54.20;;;;;;5030551;28;1965;-71
2022/02/15 09:28:43;;;;;;;;;;;19.90;54.20;;;;;;5029527;28;2021;-71
2022/02/15 09:31:09;;;;;;;;;;;19.90;54.30;;;;;;5039326;28;2347;-71
2022/02/15 09:33:34;;;;;;;;;;;19.90;54.40;;;;;;5033306;28;1690;-71
2022/02/15 09:36:00;;;;;;;;;;;19.90;54.50;;;;;;5029652;28;1445;-71
2022/02/15 09:38:25;;;;;;;;;;;19.90;54.50;;;;;;5031757;28;1677;-71
2022/02/15 09:40:50;;;;;;;;;;;19.90;54.50;;;;;;5033118;28;1691;-71
2022/02/15 09:43:16;;;;;;;;;;;19.90;54.40;;;;;;5030953;28;1596;-71
2022/02/15 09:45:42;;;;;;;;;;;19.90;54.50;;;;;;5032105;28;1894;-71
2022/02/15 09:48:08;;;;;;;;;;;19.90;54.60;;;;;;5030730;28;1190;-71
2022/02/15 09:50:34;;;;;;;;;;;19.90;54.70;;;;;;5030845;28;1468;-71
2022/02/15 09:52:59;;;;;;;;;;;19.90;54.70;;;;;;5030839;28;1324;-71
2022/02/15 09:55:25;;;;;;;;;;;19.90;55.00;;;;;;5030180;28;1193;-71
2022/02/15 09:57:50;;;;;;;;;;;19.90;55.00;;;;;;5011335;28;1290;-71
2022/02/15 10:00:18;;;;;;;;;;;20.00;54.70;;;;;;5030866;28;1306;-71
2022/02/15 10:02:44;;;;;;;;;;;20.00;54.60;;;;;;5030506;28;1568;-71
2022/02/15 10:05:13;;;;;;;;;;;20.00;54.80;;;;;;5030280;28;1315;-71
2022/02/15 10:07:45;;;;;;;;;;;20.10;54.60;;;;;;5030555;28;1898;-72
2022/02/15 10:10:11;;;;;;;;;;;20.10;54.70;;;;;;5030604;28;1035;-72
2022/02/15 10:12:36;;;;;;;;;;;20.20;54.70;;;;;;5030506;28;1387;-72
2022/02/15 10:15:02;;;;;;;;;;;20.20;54.60;;;;;;5032062;28;1300;-73
2022/02/15 10:17:27;;;;;;;;;;;20.30;54.60;;;;;;5030581;28;1096;-73
2022/02/15 10:19:55;;;;;;;;;;;20.30;54.50;;;;;;5030976;28;1056;-72
2022/02/15 10:22:20;;;;;;;;;;;20.30;54.60;;;;;;5030289;28;1305;-73
2022/02/15 10:24:50;;;;;;;;;;;20.30;54.60;;;;;;5030444;28;1370;-73
2022/02/15 10:27:16;;;;;;;;;;;20.30;54.70;;;;;;5013768;28;1964;-73
2022/02/15 10:29:42;;;;;;;;;;;20.20;54.70;;;;;;5030280;28;1366;-73
2022/02/15 10:32:08;;;;;;;;;;;20.20;54.80;;;;;;5032353;28;1436;-73
2022/02/15 10:34:44;;;;;;;;;;;20.20;54.80;;;;;;5034497;28;1410;-73
2022/02/15 10:37:11;;;;;;;;;;;20.20;54.90;;;;;;5017414;28;1279;-73
2022/02/15 10:39:42;;;;;;;;;;;20.20;55.00;;;;;;5033624;28;1318;-73
2022/02/15 10:42:14;;;;;;;;;;;20.20;55.10;;;;;;5035280;28;1353;-73
2022/02/15 10:44:59;;;;;;;;;;;20.20;55.20;;;;;;5034103;28;1366;-73
2022/02/15 10:47:28;;;;;;;;;;;20.20;55.80;;;;;;5034025;28;1910;-73
2022/02/15 10:49:54;;;;;;;;;;;20.20;55.20;;;;;;5033368;28;1358;-73
2022/02/15 10:52:21;;;;;;;;;;;20.20;55.30;;;;;;5035308;28;1067;-73
2022/02/15 10:54:46;;;;;;;;;;;20.10;55.30;;;;;;5033245;28;1876;-72
2022/02/15 10:57:15;;;;;;;;;;;20.10;55.50;;;;;;5032166;28;1274;-72
2022/02/15 10:59:41;;;;;;;;;;;20.10;55.40;;;;;;5033930;28;1548;-72
2022/02/15 11:02:10;;;;;;;;;;;20.10;55.70;;;;;;5034000;28;1378;-72
2022/02/15 11:04:35;;;;;;;;;;;20.00;55.70;;;;;;5013025;28;1320;-72
2022/02/15 11:07:05;;;;;;;;;;;20.00;55.70;;;;;;5033218;28;1958;-71
2022/02/15 11:09:36;;;;;;;;;;;20.00;55.70;;;;;;5034474;28;1315;-73
2022/02/15 11:12:21;;;;;;;;;;;20.00;55.80;;;;;;5034414;28;1301;-71
2022/02/15 11:14:50;;;;;;;;;;;20.00;55.90;;;;;;5033928;28;1216;-71
2022/02/15 11:17:16;;;;;;;;;;;20.00;56.00;;;;;;5033786;28;1072;-71
2022/02/15 11:19:42;;;;;;;;;;;20.00;56.00;;;;;;5033503;28;1315;-71
2022/02/15 11:22:17;;;;;;;;;;;20.00;56.10;;;;;;5034116;28;1326;-71
2022/02/15 11:24:42;;;;;;;;;;;19.90;56.10;;;;;;5021289;28;1361;-71
2022/02/15 11:27:19;;;;;;;;;;;19.90;56.20;;;;;;5033905;28;1903;-71
2022/02/15 11:30:02;;;;;;;;;;;19.90;56.20;;;;;;5023076;28;1177;-71
2022/02/15 11:32:29;;;;;;;;;;;19.90;56.30;;;;;;5034499;28;1084;-71
2022/02/15 11:34:54;;;;;;;;;;;19.90;56.20;;;;;;5032966;28;1272;-71
2022/02/15 11:37:22;;;;;;;;;;;19.90;56.30;;;;;;5029485;28;1361;-71
2022/02/15 11:40:04;;;;;;;;;;;19.90;56.40;;;;;;5025884;28;1251;-70
2022/02/15 11:42:39;;;;;;;;;;;19.90;56.50;;;;;;5033905;28;1299;-72
2022/02/15 11:45:14;;;;;;;;;;;19.80;56.50;;;;;;5033989;28;1343;-72
2022/02/15 11:47:43;;;;;;;;;;;19.80;56.60;;;;;;5032411;28;1957;-72
2022/02/15 11:50:13;;;;;;;;;;;19.80;56.50;;;;;;5032895;28;1341;-71
2022/02/15 11:52:38;;;;;;;;;;;19.80;56.70;;;;;;5032757;28;1402;-70
2022/02/15 11:55:04;;;;;;;;;;;19.80;56.70;;;;;;5034128;28;1343;-71
2022/02/15 11:57:30;;;;;;;;;;;19.80;56.60;;;;;;5032065;28;1379;-71
2022/02/15 11:59:56;;;;;;;;;;;19.80;56.70;;;;;;5032236;28;1096;-70
2022/02/15 12:02:21;;;;;;;;;;;19.70;56.70;;;;;;5034080;28;1103;-71
2022/02/15 12:04:51;;;;;;;;;;;19.70;56.70;;;;;;5033756;28;1334;-70
2022/02/15 12:07:16;;;;;;;;;;;19.70;56.80;;;;;;5032739;28;1945;-71
2022/02/15 12:09:42;;;;;;;;;;;19.70;56.80;;;;;;5033374;28;1290;-71
2022/02/15 12:12:17;;;;;;;;;;;19.70;56.90;;;;;;5033682;28;1282;-71
2022/02/15 12:14:42;;;;;;;;;;;19.70;57.00;;;;;;5032404;28;1304;-71
2022/02/15 12:17:08;;;;;;;;;;;19.70;57.00;;;;;;5032451;28;1299;-71
2022/02/15 12:19:34;;;;;;;;;;;19.70;57.00;;;;;;5031903;28;1100;-71
2022/02/15 12:22:03;;;;;;;;;;;19.70;57.10;;;;;;5032712;28;1128;-71
2022/02/15 12:24:30;;;;;;;;;;;19.60;57.10;;;;;;5046388;22;3804;-65
2022/02/15 12:26:56;;;;;;;;;;;19.70;57.20;;;;;;5062514;28;2363;-68
2022/02/15 12:29:21;;;;;;;;;;;19.60;57.30;;;;;;5050537;28;1342;-67
2022/02/15 12:31:52;;;;;;;;;;;19.70;57.30;;;;;;5053661;28;1382;-68
2022/02/15 12:34:17;;;;;;;;;;;19.60;57.30;;;;;;5052115;28;1446;-67
2022/02/15 12:36:43;;;;;;;;;;;19.70;57.30;;;;;;5033763;28;1283;-69
2022/02/15 12:39:10;;;;;;;;;;;19.70;57.30;;;;;;5033432;28;1422;-67
2022/02/15 12:41:36;;;;;;;;;;;19.70;57.20;;;;;;5032292;28;1674;-68
2022/02/15 12:44:02;;;;;;;;;;;19.70;57.20;;;;;;5030693;28;2139;-63
2022/02/15 12:46:28;;;;;;;;;;;19.70;57.20;;;;;;5028672;28;1911;-67
2022/02/15 12:48:55;;;;;;;;;;;19.70;57.20;;;;;;5030108;28;1430;-68
2022/02/15 12:51:20;;;;;;;;;;;19.70;57.10;;;;;;5022301;28;1932;-67
2022/02/15 12:53:52;;;;;;;;;;;19.80;57.10;;;;;;5023761;28;1953;-67
2022/02/15 12:56:21;;;;;;;;;;;19.80;57.00;;;;;;5025856;28;1504;-67
2022/02/15 12:58:47;;;;;;;;;;;19.80;57.00;;;;;;5022997;28;2159;-68
2022/02/15 13:01:13;;;;;;;;;;;19.80;57.00;;;;;;5024832;28;1546;-67
2022/02/15 13:03:42;;;;;;;;;;;19.80;57.00;;;;;;5018341;28;1284;-67
2022/02/15 13:06:08;;;;;;;;;;;19.80;57.00;;;;;;5031559;28;1894;-68
2022/02/15 13:08:42;;;;;;;;;;;19.80;56.90;;;;;;5021693;28;1829;-67
2022/02/15 13:11:07;;;;;;;;;;;19.90;56.90;;;;;;5024897;28;1436;-68
2022/02/15 13:13:35;;;;;;;;;;;19.90;56.90;;;;;;5045454;22;2062;-67
2022/02/15 13:16:02;;;;;;;;;;;19.90;57.00;;;;;;5053064;28;1356;-64
2022/02/15 13:18:28;;;;;;;;;;;19.90;56.80;;;;;;5017525;28;2168;-68
2022/02/15 13:20:54;;;;;;;;;;;19.90;56.80;;;;;;5041067;28;2019;-67
2022/02/15 13:23:19;;;;;;;;;;;19.90;56.80;;;;;;5039030;28;1506;-68
2022/02/15 13:25:47;;;;;;;;;;;19.90;56.90;;;;;;5044452;28;1922;-67
2022/02/15 13:28:13;;;;;;;;;;;19.90;56.80;;;;;;5030373;28;2060;-67
2022/02/15 13:30:39;;;;;;;;;;;19.90;56.80;;;;;;5038122;28;1983;-68
2022/02/15 13:33:06;;;;;;;;;;;19.90;56.80;;;;;;5026151;28;2051;-66
2022/02/15 13:35:31;;;;;;;;;;;19.90;56.80;;;;;;5043598;28;1917;-67
2022/02/15 13:37:58;;;;;;;;;;;19.90;56.80;;;;;;5031707;28;2218;-67
2022/02/15 13:40:24;;;;;;;;;;;20.00;56.90;;;;;;5031967;28;1655;-67
2022/02/15 13:42:49;;;;;;;;;;;20.00;56.90;;;;;;5042461;28;1647;-66
2022/02/15 13:45:15;;;;;;;;;;;20.00;56.80;;;;;;5047330;28;1630;-68
2022/02/15 13:47:41;;;;;;;;;;;20.00;56.90;;;;;;5049546;28;1898;-68
2022/02/15 13:50:06;;;;;;;;;;;20.00;56.90;;;;;;5049309;28;1299;-69
2022/02/15 13:52:35;;;;;;;;;;;19.90;56.90;;;;;;5042869;28;1945;-68
2022/02/15 13:55:00;;;;;;;;;;;20.00;56.90;;;;;;5026401;28;1836;-67
2022/02/15 13:57:26;;;;;;;;;;;20.00;56.90;;;;;;5038208;28;1937;-67
2022/02/15 13:59:51;;;;;;;;;;;20.00;56.90;;;;;;5042214;28;1881;-67
2022/02/15 14:02:17;;;;;;;;;;;20.00;56.90;;;;;;5027196;28;2325;-68
2022/02/15 14:04:42;;;;;;;;;;;20.00;57.00;;;;;;5045021;28;1833;-67
2022/02/15 14:07:08;;;;;;;;;;;20.00;56.90;;;;;;5043778;28;1902;-68
2022/02/15 14:09:34;;;;;;;;;;;20.00;56.90;;;;;;5042919;28;1799;-68
2022/02/15 14:11:59;;;;;;;;;;;20.00;56.80;;;;;;5047730;28;1841;-67
2022/02/15 14:14:24;;;;;;;;;;;20.00;56.90;;;;;;5044393;28;1315;-67
2022/02/15 14:16:54;;;;;;;;;;;20.00;56.90;;;;;;5042183;28;1627;-68
2022/02/15 14:19:20;;;;;;;;;;;20.00;56.90;;;;;;5035491;28;1783;-68
2022/02/15 14:21:45;;;;;;;;;;;20.00;56.90;;;;;;5048439;28;1957;-68
2022/02/15 14:24:11;;;;;;;;;;;20.00;56.90;;;;;;5036523;28;1321;-69
2022/02/15 14:26:38;;;;;;;;;;;20.00;56.90;;;;;;5041953;28;1936;-67
2022/02/15 14:29:03;;;;;;;;;;;20.00;56.90;;;;;;5053829;28;1542;-68